createdAt,value
2023-03-26T00:02:24.139Z,97050.00
2023-03-26T00:04:55.065Z,97053.55
2023-03-26T00:07:25.006Z,97046.99
2023-03-26T00:09:54.992Z,97049.72
2023-03-26T00:12:25.219Z,97044.55
2023-03-26T00:14:55.558Z,97048.65
2023-03-26T00:17:26.061Z,97048.65
2023-03-26T00:19:57.829Z,97048.09
2023-03-26T00:22:27.711Z,97050.56
2023-03-26T00:24:58.308Z,97051.64
2023-03-26T00:27:28.651Z,97051.93
2023-03-26T00:30:00.392Z,97056.02
2023-03-26T00:32:33.785Z,97060.38
2023-03-26T00:35:04.862Z,97059.82
2023-03-26T00:37:35.698Z,97051.08
2023-03-26T00:40:14.422Z,97057.90
2023-03-26T00:42:44.376Z,97065.56
2023-03-26T00:45:14.380Z,97066.92
2023-03-26T00:47:47.676Z,97056.54
2023-03-26T00:50:17.670Z,97057.90
2023-03-26T00:52:47.559Z,97056.28
2023-03-26T00:55:17.717Z,97061.73
2023-03-26T00:57:47.576Z,97060.91
2023-03-26T01:00:18.193Z,97057.38
2023-03-26T01:02:48.489Z,97054.91
2023-03-26T01:05:42.132Z,97054.91
2023-03-26T01:08:35.537Z,97059.55
2023-03-26T01:11:10.392Z,97043.98
2023-03-26T01:13:43.204Z,97059.53
2023-03-26T01:16:17.326Z,97062.27
2023-03-26T01:18:47.392Z,97063.62
2023-03-26T01:21:19.985Z,97060.09
2023-03-26T01:23:51.782Z,97068.52
2023-03-26T01:26:27.386Z,97045.05
2023-03-26T01:28:59.482Z,97066.34
2023-03-26T01:31:33.768Z,97069.88
2023-03-26T01:34:13.049Z,97070.16
2023-03-26T01:37:16.437Z,97078.34
2023-03-26T01:39:53.130Z,97075.06
2023-03-26T01:42:29.070Z,97081.33
2023-03-26T01:45:22.269Z,97081.61
2023-03-26T01:47:52.396Z,97082.13
2023-03-26T01:50:22.505Z,97092.22
2023-03-26T01:52:55.162Z,97087.57
2023-03-26T01:55:26.935Z,97099.02
2023-03-26T01:58:11.446Z,97101.20
2023-03-26T02:00:47.152Z,97103.11
2023-03-26T02:03:20.340Z,97105.57
2023-03-26T02:05:57.927Z,97105.31
2023-03-26T02:08:37.756Z,97110.20
2023-03-26T02:11:14.328Z,97112.37
2023-03-26T02:13:47.868Z,97123.83
2023-03-26T02:16:20.893Z,97124.89
2023-03-26T02:18:54.462Z,97122.72
2023-03-26T02:21:26.753Z,97136.08
2023-03-26T02:24:02.359Z,97199.83
2023-03-26T02:26:33.213Z,97217.27
2023-03-26T02:29:03.580Z,97221.64
2023-03-26T02:31:35.207Z,97244.25
2023-03-26T02:34:06.921Z,97250.50
2023-03-26T02:36:37.622Z,97276.12
2023-03-26T02:39:09.043Z,97286.16
2023-03-26T02:41:39.968Z,97297.63
2023-03-26T02:44:11.901Z,97302.00
2023-03-26T02:46:44.892Z,97315.33
2023-03-26T02:49:18.149Z,97321.58
2023-03-26T02:51:50.204Z,97323.48
2023-03-26T02:54:21.331Z,97336.56
2023-03-26T02:56:52.802Z,97336.56
2023-03-26T02:59:23.954Z,97349.89
2023-03-26T03:01:53.974Z,97356.70
2023-03-26T03:04:25.296Z,97361.88
2023-03-26T03:06:57.662Z,97353.95
2023-03-26T03:09:30.246Z,97367.30
2023-03-26T03:12:03.914Z,97371.94
2023-03-26T03:14:35.840Z,97389.33
2023-03-26T03:17:07.135Z,97389.33
2023-03-26T03:19:38.810Z,97386.33
2023-03-26T03:22:11.959Z,97391.52
2023-03-26T03:24:44.348Z,97396.95
2023-03-26T03:27:15.220Z,97397.45
2023-03-26T03:29:46.645Z,97391.73
2023-03-26T03:32:16.672Z,97402.60
2023-03-26T03:34:47.136Z,97396.34
2023-03-26T03:37:18.172Z,97405.00
2023-03-26T03:39:49.133Z,97411.27
2023-03-26T03:42:20.726Z,97416.44
2023-03-26T03:44:51.389Z,97427.34
2023-03-26T03:47:21.914Z,97417.23
2023-03-26T03:49:51.935Z,97425.64
2023-03-26T03:52:26.718Z,97426.73
2023-03-26T03:54:59.170Z,97428.34
2023-03-26T03:57:30.222Z,97432.70
2023-03-26T04:00:00.426Z,97422.59
2023-03-26T04:02:35.200Z,97426.41
2023-03-26T04:05:05.427Z,97426.38
2023-03-26T04:07:35.342Z,97423.93
2023-03-26T04:10:06.688Z,97425.81
2023-03-26T04:12:36.987Z,97424.17
2023-03-26T04:15:08.934Z,97431.50
2023-03-26T04:17:40.649Z,97427.69
2023-03-26T04:20:14.535Z,97426.56
2023-03-26T04:22:45.690Z,97430.38
2023-03-26T04:25:17.625Z,97425.72
2023-03-26T04:27:48.659Z,97419.19
2023-03-26T04:30:21.471Z,97427.36
2023-03-26T04:32:52.226Z,97429.77
2023-03-26T04:35:22.692Z,97434.13
2023-03-26T04:37:53.761Z,97437.09
2023-03-26T04:40:24.506Z,97441.45
2023-03-26T04:42:55.941Z,97441.97
2023-03-26T04:45:26.331Z,97438.40
2023-03-26T04:47:56.648Z,97438.94
2023-03-26T04:50:27.322Z,97433.23
2023-03-26T04:53:00.871Z,97424.18
2023-03-26T04:55:50.017Z,97438.64
2023-03-26T04:58:20.606Z,97434.80
2023-03-26T05:00:52.244Z,97447.05
2023-03-26T05:03:24.581Z,97444.30
2023-03-26T05:05:55.970Z,97451.64
2023-03-26T05:11:38.326Z,97445.34
2023-03-26T05:14:11.208Z,97445.31
2023-03-26T05:16:41.981Z,97449.13
2023-03-26T05:19:12.902Z,97438.48
2023-03-26T05:21:45.460Z,97444.47
2023-03-26T05:24:18.055Z,97439.80
2023-03-26T05:26:53.767Z,97444.12
2023-03-26T05:29:39.789Z,97435.69
2023-03-26T05:32:12.365Z,97438.14
2023-03-26T05:40:47.351Z,97430.45
2023-03-26T05:43:19.425Z,97427.70
2023-03-26T05:45:52.005Z,97429.30
2023-03-26T05:48:24.077Z,97429.27
2023-03-26T05:50:55.534Z,97425.45
2023-03-26T05:53:27.364Z,97425.15
2023-03-26T05:55:59.750Z,97426.23
2023-03-26T05:58:30.990Z,97429.73
2023-03-26T06:01:04.139Z,97433.55
2023-03-26T06:03:36.049Z,97435.38
2023-03-26T06:06:08.679Z,97433.45
2023-03-26T06:08:41.280Z,97430.69
2023-03-26T06:11:14.139Z,97427.69
2023-03-26T06:13:45.382Z,97429.84
2023-03-26T06:16:27.190Z,97435.27
2023-03-26T06:18:50.004Z,97434.42
2023-03-26T06:21:22.725Z,97430.03
2023-03-26T06:23:54.313Z,97427.28
2023-03-26T06:26:26.236Z,97429.73
2023-03-26T06:28:57.598Z,97433.23
2023-03-26T06:31:29.529Z,97429.41
2023-03-26T06:34:01.298Z,97422.85
2023-03-26T06:36:31.368Z,97431.79
2023-03-26T06:39:01.242Z,97426.62
2023-03-26T06:41:34.879Z,97426.86
2023-03-26T06:44:04.784Z,97431.20
2023-03-26T06:46:34.743Z,97429.27
2023-03-26T06:49:04.743Z,97430.59
2023-03-26T06:51:34.697Z,97407.20
2023-03-26T06:54:04.771Z,97407.20
2023-03-26T06:56:34.822Z,97438.13
2023-03-26T06:59:04.809Z,97437.84
2023-03-26T07:01:35.080Z,97440.53
2023-03-26T07:04:05.162Z,97437.53
2023-03-26T07:06:35.491Z,97442.39
2023-03-26T07:09:05.360Z,97442.08
2023-03-26T07:11:35.474Z,97444.25
2023-03-26T07:14:05.340Z,97447.74
2023-03-26T07:16:35.291Z,97447.16
2023-03-26T07:19:05.738Z,97449.06
2023-03-26T07:21:36.044Z,97441.95
2023-03-26T07:24:06.339Z,97444.67
2023-03-26T07:26:59.891Z,97446.50
2023-03-26T07:29:41.357Z,97445.41
2023-03-26T07:32:26.628Z,97443.22
2023-03-26T07:35:05.062Z,97446.45
2023-03-26T07:46:49.597Z,97447.91
2023-03-26T07:49:19.058Z,97443.25
2023-03-26T07:51:49.775Z,97445.69
2023-03-26T07:54:20.160Z,97449.48
2023-03-26T07:57:02.219Z,97450.77
2023-03-26T07:59:40.487Z,97448.29
2023-03-26T08:02:21.793Z,97445.30
2023-03-26T08:04:54.852Z,97441.71
2023-03-26T08:07:30.572Z,97446.84
2023-03-26T08:10:15.059Z,97447.64
2023-03-26T08:12:52.138Z,97451.41
2023-03-26T08:15:26.342Z,97445.11
2023-03-26T08:18:17.057Z,97456.26
2023-03-26T08:20:49.721Z,97459.78
2023-03-26T08:23:31.529Z,97463.50
2023-03-26T08:26:10.187Z,97479.52
2023-03-26T08:28:54.899Z,97481.11
2023-03-26T08:31:27.584Z,97483.27
2023-03-26T08:33:57.672Z,97488.12
2023-03-26T08:36:28.352Z,97480.20
2023-03-26T08:38:59.592Z,97481.51
2023-03-26T08:41:41.596Z,97486.13
2023-03-26T08:44:33.225Z,97492.33
2023-03-26T08:47:25.132Z,97493.13
2023-03-26T08:50:20.018Z,97504.53
2023-03-26T08:52:52.587Z,97498.20
2023-03-26T08:55:49.254Z,97503.35
2023-03-26T08:58:41.251Z,97512.85
2023-03-26T09:01:32.678Z,97510.91
2023-03-26T09:04:20.385Z,97516.29
2023-03-26T09:06:53.173Z,97513.52
2023-03-26T09:09:57.257Z,97514.59
2023-03-26T09:12:47.909Z,97518.63
2023-03-26T09:15:41.681Z,97522.92
2023-03-26T09:18:48.090Z,97517.75
2023-03-26T09:21:37.218Z,97524.77
2023-03-26T09:24:09.836Z,97516.06
2023-03-26T09:26:51.831Z,97522.26
2023-03-26T09:29:36.861Z,97523.56
2023-03-26T09:32:12.269Z,97526.81
2023-03-26T09:34:45.383Z,97531.12
2023-03-26T09:37:57.095Z,97528.34
2023-03-26T09:40:20.254Z,97524.53
2023-03-26T09:42:59.111Z,97499.63
2023-03-26T09:45:47.930Z,97518.52
2023-03-26T09:48:37.068Z,97519.00
2023-03-26T09:51:30.606Z,97519.53
2023-03-26T09:54:22.724Z,97523.02
2023-03-26T09:57:20.607Z,97527.85
2023-03-26T10:00:02.384Z,97526.16
2023-03-26T10:02:51.648Z,97536.76
2023-03-26T10:05:30.453Z,97541.63
2023-03-26T10:08:32.176Z,97539.67
2023-03-26T10:11:22.851Z,97528.50
2023-03-26T10:14:02.099Z,97534.70
2023-03-26T10:16:37.454Z,97533.82
2023-03-26T10:19:29.929Z,97535.94
2023-03-26T10:22:19.199Z,97544.84
2023-03-26T10:25:30.761Z,97540.17
2023-03-26T10:28:06.414Z,97539.36
2023-03-26T10:30:57.762Z,97532.77
2023-03-26T10:33:51.353Z,97538.70
2023-03-26T10:36:27.529Z,97532.72
2023-03-26T10:39:00.429Z,97539.19
2023-03-26T10:41:44.984Z,97540.48
2023-03-26T10:44:41.021Z,97542.92
2023-03-26T10:47:38.323Z,97557.55
2023-03-26T10:50:27.751Z,97560.20
2023-03-26T10:53:03.567Z,97562.33
2023-03-26T10:55:47.476Z,97571.00
2023-03-26T10:58:46.071Z,97575.83
2023-03-26T11:01:06.544Z,97584.19
2023-03-26T11:03:40.842Z,97593.40
2023-03-26T11:06:26.292Z,97598.23
2023-03-26T11:09:15.297Z,97609.83
2023-03-26T11:11:54.941Z,97606.55
2023-03-26T11:14:56.973Z,97610.02
2023-03-26T11:17:40.244Z,97617.88
2023-03-26T11:20:38.911Z,97634.37
2023-03-26T11:23:39.682Z,97642.79
2023-03-26T11:26:21.009Z,97645.81
2023-03-26T11:29:04.049Z,97655.38
2023-03-26T11:31:25.967Z,97658.97
2023-03-26T11:33:58.357Z,97658.22
2023-03-26T11:36:31.180Z,97663.98
2023-03-26T11:39:01.705Z,97661.56
2023-03-26T11:41:34.463Z,97657.55
2023-03-26T11:44:37.318Z,97655.98
2023-03-26T11:47:10.528Z,97653.86
2023-03-26T11:49:40.542Z,97664.78
2023-03-26T11:52:16.060Z,97668.37
2023-03-26T11:54:49.743Z,97670.08
2023-03-26T11:57:24.646Z,97674.49
2023-03-26T11:59:59.977Z,97681.12
2023-03-26T12:02:34.903Z,97683.36
2023-03-26T12:05:16.611Z,97690.30
2023-03-26T12:07:58.038Z,97694.18
2023-03-26T12:10:41.161Z,97690.99
2023-03-26T12:13:33.521Z,97690.23
2023-03-26T12:16:08.839Z,97697.90
2023-03-26T12:18:39.050Z,97694.20
2023-03-26T12:21:14.467Z,97696.72
2023-03-26T12:23:57.724Z,97693.30
2023-03-26T12:26:47.047Z,97689.35
2023-03-26T12:29:21.085Z,97704.69
2023-03-26T12:31:56.436Z,97706.16
2023-03-26T12:34:30.012Z,97704.86
2023-03-26T12:37:03.261Z,97712.30
2023-03-26T12:40:10.338Z,97713.19
2023-03-26T12:44:44.019Z,97717.88
2023-03-26T12:48:02.243Z,97738.14
2023-03-26T12:50:04.401Z,97740.66
2023-03-26T12:52:43.397Z,97735.06
2023-03-26T12:55:25.501Z,97736.76
2023-03-26T12:58:13.348Z,97746.33
2023-03-26T13:00:42.488Z,97744.73
2023-03-26T13:03:21.101Z,97738.51
2023-03-26T13:06:22.421Z,97739.14
2023-03-26T13:09:11.359Z,97744.63
2023-03-26T13:12:10.042Z,97749.89
2023-03-26T13:14:54.890Z,97763.56
2023-03-26T13:17:36.666Z,97769.31
2023-03-26T13:20:19.536Z,97764.69
2023-03-26T13:23:01.739Z,97778.05
2023-03-26T13:25:49.342Z,97781.34
2023-03-26T13:28:31.585Z,97783.34
2023-03-26T13:31:23.381Z,97781.77
2023-03-26T13:34:07.808Z,97779.66
2023-03-26T13:36:43.842Z,97780.53
2023-03-26T13:39:25.122Z,97790.36
2023-03-26T13:42:06.476Z,97794.77
2023-03-26T13:44:53.850Z,97792.88
2023-03-26T13:47:30.234Z,97794.29
2023-03-26T13:50:18.545Z,97789.98
2023-03-26T13:52:53.124Z,97802.27
2023-03-26T13:55:31.262Z,97793.80
2023-03-26T13:58:16.001Z,97806.20
2023-03-26T14:00:56.817Z,97811.70
2023-03-26T14:03:46.205Z,97812.77
2023-03-26T14:06:43.078Z,97818.22
2023-03-26T14:09:22.888Z,97818.49
2023-03-26T14:11:56.923Z,97805.97
2023-03-26T14:14:29.529Z,97803.80
2023-03-26T14:17:04.957Z,97806.52
2023-03-26T14:19:37.942Z,97804.13
2023-03-26T14:22:27.883Z,97797.33
2023-03-26T14:25:12.470Z,97797.92
2023-03-26T14:27:57.864Z,97795.09
2023-03-26T14:30:39.298Z,97798.69
2023-03-26T14:33:35.740Z,97801.13
2023-03-26T14:36:39.456Z,97803.53
2023-03-26T14:39:22.411Z,97792.33
2023-03-26T14:41:56.722Z,97796.09
2023-03-26T14:44:29.907Z,97793.09
2023-03-26T14:47:15.945Z,97789.01
2023-03-26T14:49:50.410Z,97791.50
2023-03-26T14:52:24.260Z,97789.83
2023-03-26T14:54:54.878Z,97791.73
2023-03-26T14:57:43.684Z,97797.45
2023-03-26T15:00:20.798Z,97812.13
2023-03-26T15:03:13.026Z,97807.45
2023-03-26T15:05:52.671Z,97797.83
2023-03-26T15:08:50.865Z,97807.12
2023-03-26T15:11:41.963Z,97800.55
2023-03-26T15:14:40.306Z,97795.59
2023-03-26T15:17:41.221Z,97789.16
2023-03-26T15:20:37.878Z,97805.48
2023-03-26T15:23:26.842Z,97805.17
2023-03-26T15:26:35.432Z,97808.20
2023-03-26T15:29:17.366Z,97810.61
2023-03-26T15:32:00.346Z,97808.97
2023-03-26T15:34:51.596Z,97785.64
2023-03-26T15:37:25.828Z,97809.73
2023-03-26T15:40:30.612Z,97813.22
2023-03-26T15:43:20.859Z,97811.86
2023-03-26T15:46:12.168Z,97811.86
2023-03-26T15:49:03.311Z,97794.98
2023-03-26T15:55:07.124Z,97799.56
2023-03-26T15:58:00.941Z,97797.70
2023-03-26T16:00:33.680Z,97789.55
2023-03-26T16:07:26.521Z,97780.25
2023-03-26T16:10:32.630Z,97780.25
2023-03-26T16:13:39.019Z,97769.92
2023-03-26T16:19:35.636Z,97771.50
2023-03-26T16:22:11.142Z,97782.09
2023-03-26T16:44:49.088Z,97780.90
2023-03-26T16:47:34.629Z,97782.84
2023-03-26T16:50:11.517Z,97774.97
2023-03-26T16:53:18.780Z,97769.81
2023-03-26T16:55:57.719Z,97755.45
2023-03-26T16:58:57.545Z,97762.08
2023-03-26T17:02:30.416Z,97759.09
2023-03-26T17:05:10.993Z,97743.49
2023-03-26T17:08:35.391Z,97745.55
2023-03-26T17:10:58.705Z,97751.27
2023-03-26T17:17:30.375Z,97757.30
2023-03-26T17:20:21.689Z,97738.70
2023-03-26T17:23:26.344Z,97753.22
2023-03-26T17:26:26.844Z,97753.76
2023-03-26T17:29:25.396Z,97742.06
2023-03-26T17:35:05.246Z,97739.03
2023-03-26T17:44:15.319Z,97722.48
2023-03-26T17:47:05.370Z,97719.76
2023-03-26T17:49:47.781Z,97721.66
2023-03-26T17:52:58.426Z,97721.12
2023-03-26T17:59:16.940Z,97713.50
2023-03-26T18:01:46.388Z,97690.38
2023-03-26T18:05:17.597Z,97684.63
2023-03-26T18:08:27.601Z,97680.05
2023-03-26T18:11:33.828Z,97671.03
2023-03-26T18:14:35.432Z,97685.17
2023-03-26T18:20:21.391Z,97682.45
2023-03-26T18:22:56.193Z,97669.40
2023-03-26T18:26:14.355Z,97665.59
2023-03-26T18:29:16.200Z,97655.52
2023-03-26T18:34:58.675Z,97657.70
2023-03-26T18:38:37.668Z,97650.36
2023-03-26T18:41:21.524Z,97655.26
2023-03-26T18:44:15.235Z,97645.20
2023-03-26T18:47:09.969Z,97647.09
2023-03-26T18:49:45.681Z,97652.00
2023-03-26T18:55:27.593Z,97646.82
2023-03-26T18:57:55.482Z,97642.48
2023-03-26T19:00:26.374Z,97635.69
2023-03-26T19:03:05.202Z,97626.47
2023-03-26T19:05:38.647Z,97626.11
2023-03-26T19:08:21.533Z,97625.11
2023-03-26T19:14:25.631Z,97612.33
2023-03-26T19:18:06.068Z,97617.23
2023-03-26T19:20:43.333Z,97602.58
2023-03-26T19:23:26.991Z,97600.91
2023-03-26T19:26:02.964Z,97605.30
2023-03-26T19:28:54.158Z,97600.14
2023-03-26T19:35:06.985Z,97590.62
2023-03-26T19:38:00.318Z,97596.88
2023-03-26T19:46:04.118Z,97575.70
2023-03-26T19:48:46.046Z,97576.25
2023-03-26T19:51:10.984Z,97567.28
2023-03-26T19:53:41.632Z,97550.86
2023-03-26T19:59:17.114Z,97544.83
2023-03-26T20:02:25.369Z,97541.94
2023-03-26T20:17:44.874Z,97540.83
2023-03-26T20:20:16.850Z,97547.83
2023-03-26T20:23:18.136Z,97513.30
2023-03-26T20:33:58.608Z,97539.47
2023-03-26T20:35:35.769Z,97539.47
2023-03-26T20:38:39.003Z,97527.50
2023-03-26T20:47:32.451Z,97526.52
2023-03-26T20:59:36.507Z,97490.95
2023-03-26T21:02:20.894Z,97491.16
2023-03-26T21:15:23.426Z,97488.85
2023-03-26T21:17:56.013Z,97492.59
2023-03-26T21:20:40.073Z,97499.70
2023-03-26T21:29:25.031Z,97503.27
2023-03-26T21:35:28.193Z,97496.75
2023-03-26T21:38:28.292Z,97494.88
2023-03-26T21:41:36.810Z,97498.11
2023-03-26T21:47:32.834Z,97492.16
2023-03-26T21:50:32.016Z,97483.72
2023-03-26T21:56:26.890Z,97491.34
2023-03-26T21:59:35.902Z,97494.91
2023-03-26T22:05:57.273Z,97495.22
2023-03-26T22:11:42.733Z,97504.48
2023-03-26T22:14:29.683Z,97500.70
2023-03-26T22:17:10.826Z,97503.66
2023-03-26T22:19:48.639Z,97503.70
2023-03-26T22:22:23.276Z,97512.67
2023-03-26T22:24:57.198Z,97518.70
2023-03-26T22:27:28.857Z,97518.97
2023-03-26T22:30:23.891Z,97520.88
2023-03-26T22:33:48.917Z,97516.56
2023-03-26T22:36:26.858Z,97518.20
2023-03-26T22:38:57.363Z,97522.31
2023-03-26T22:41:50.235Z,97523.47
2023-03-26T22:45:27.057Z,97521.27
2023-03-26T22:51:06.130Z,97532.77
2023-03-26T22:53:54.890Z,97534.39
2023-03-26T22:56:58.499Z,97530.89
2023-03-26T23:00:11.096Z,97533.92
2023-03-26T23:02:54.127Z,97540.22
2023-03-26T23:06:12.409Z,97537.23
2023-03-26T23:08:45.332Z,97541.89
2023-03-26T23:14:59.261Z,97544.41
2023-03-26T23:17:55.366Z,97554.76
2023-03-26T23:21:06.385Z,97548.49
2023-03-26T23:27:07.995Z,97562.28
2023-03-26T23:29:51.343Z,97563.61
2023-03-26T23:32:24.925Z,97574.54
2023-03-26T23:35:43.880Z,97575.66
2023-03-26T23:37:43.699Z,97578.66
2023-03-26T23:40:21.015Z,97580.88
2023-03-26T23:42:51.588Z,97588.26
2023-03-26T23:48:32.954Z,97597.59
2023-03-26T23:51:04.112Z,97600.89
2023-03-26T23:53:39.419Z,97601.47
2023-03-26T23:56:42.805Z,97602.59
2023-03-26T23:59:23.101Z,97609.41
